sensor_id;sensor_type;location;lat;lon;timestamp;P1;durP1;ratioP1;P2;durP2;ratioP2
44434;SDS011;30138;20.964;105.830;2022-11-21T00:02:46;82.80;;;45.33;;
44434;SDS011;30138;20.964;105.830;2022-11-21T00:07:54;82.75;;;44.85;;
44434;SDS011;30138;20.964;105.830;2022-11-21T00:13:03;75.07;;;44.10;;
44434;SDS011;30138;20.964;105.830;2022-11-21T00:18:11;80.57;;;42.40;;
44434;SDS011;30138;20.964;105.830;2022-11-21T00:23:19;77.95;;;41.03;;
44434;SDS011;30138;20.964;105.830;2022-11-21T00:28:31;69.00;;;39.00;;
44434;SDS011;30138;20.964;105.830;2022-11-21T00:33:40;80.93;;;40.05;;
44434;SDS011;30138;20.964;105.830;2022-11-21T00:38:47;69.88;;;39.15;;
44434;SDS011;30138;20.964;105.830;2022-11-21T00:43:57;68.95;;;38.35;;
44434;SDS011;30138;20.964;105.830;2022-11-21T00:49:04;65.65;;;37.92;;
44434;SDS011;30138;20.964;105.830;2022-11-21T00:54:12;75.47;;;39.55;;
44434;SDS011;30138;20.964;105.830;2022-11-21T00:59:24;74.97;;;38.30;;
44434;SDS011;30138;20.964;105.830;2022-11-21T01:04:34;73.97;;;39.60;;
44434;SDS011;30138;20.964;105.830;2022-11-21T01:09:42;71.60;;;40.15;;
44434;SDS011;30138;20.964;105.830;2022-11-21T01:14:51;72.97;;;40.28;;
44434;SDS011;30138;20.964;105.830;2022-11-21T01:19:58;71.78;;;40.50;;
44434;SDS011;30138;20.964;105.830;2022-11-21T01:25:06;73.30;;;41.22;;
44434;SDS011;30138;20.964;105.830;2022-11-21T01:30:18;79.78;;;43.03;;
44434;SDS011;30138;20.964;105.830;2022-11-21T01:35:26;84.90;;;43.75;;
44434;SDS011;30138;20.964;105.830;2022-11-21T01:40:36;97.88;;;54.10;;
44434;SDS011;30138;20.964;105.830;2022-11-21T01:45:55;106.80;;;53.97;;
44434;SDS011;30138;20.964;105.830;2022-11-21T01:51:05;90.32;;;50.35;;
44434;SDS011;30138;20.964;105.830;2022-11-21T01:56:19;85.72;;;48.88;;
44434;SDS011;30138;20.964;105.830;2022-11-21T02:01:29;84.13;;;49.22;;
44434;SDS011;30138;20.964;105.830;2022-11-21T02:06:38;90.37;;;50.03;;
44434;SDS011;30138;20.964;105.830;2022-11-21T02:11:46;84.18;;;48.13;;
44434;SDS011;30138;20.964;105.830;2022-11-21T02:17:00;76.93;;;45.13;;
44434;SDS011;30138;20.964;105.830;2022-11-21T02:22:10;84.70;;;48.33;;
44434;SDS011;30138;20.964;105.830;2022-11-21T02:27:29;83.53;;;48.85;;
44434;SDS011;30138;20.964;105.830;2022-11-21T02:32:39;81.22;;;47.08;;
44434;SDS011;30138;20.964;105.830;2022-11-21T02:37:50;87.78;;;49.40;;
44434;SDS011;30138;20.964;105.830;2022-11-21T02:43:05;88.65;;;49.83;;
44434;SDS011;30138;20.964;105.830;2022-11-21T02:48:20;89.63;;;51.10;;
44434;SDS011;30138;20.964;105.830;2022-11-21T02:53:27;88.55;;;51.72;;
44434;SDS011;30138;20.964;105.830;2022-11-21T02:58:37;92.78;;;52.88;;
44434;SDS011;30138;20.964;105.830;2022-11-21T03:03:44;93.32;;;52.00;;
44434;SDS011;30138;20.964;105.830;2022-11-21T03:08:51;84.45;;;51.33;;
44434;SDS011;30138;20.964;105.830;2022-11-21T03:14:00;91.63;;;53.45;;
44434;SDS011;30138;20.964;105.830;2022-11-21T03:19:07;93.07;;;53.95;;
44434;SDS011;30138;20.964;105.830;2022-11-21T03:24:15;89.68;;;53.22;;
44434;SDS011;30138;20.964;105.830;2022-11-21T03:29:24;84.18;;;54.42;;
44434;SDS011;30138;20.964;105.830;2022-11-21T03:34:32;90.55;;;53.15;;
44434;SDS011;30138;20.964;105.830;2022-11-21T03:39:41;86.18;;;50.83;;
44434;SDS011;30138;20.964;105.830;2022-11-21T03:44:51;84.22;;;48.53;;
44434;SDS011;30138;20.964;105.830;2022-11-21T03:49:59;80.32;;;48.50;;
44434;SDS011;30138;20.964;105.830;2022-11-21T03:55:07;79.80;;;48.13;;
44434;SDS011;30138;20.964;105.830;2022-11-21T04:00:17;85.82;;;49.55;;
44434;SDS011;30138;20.964;105.830;2022-11-21T04:05:25;80.43;;;49.57;;
44434;SDS011;30138;20.964;105.830;2022-11-21T04:10:35;81.43;;;48.97;;
44434;SDS011;30138;20.964;105.830;2022-11-21T04:15:44;76.25;;;48.58;;
44434;SDS011;30138;20.964;105.830;2022-11-21T04:20:54;70.15;;;46.65;;
44434;SDS011;30138;20.964;105.830;2022-11-21T04:26:02;73.07;;;46.43;;
44434;SDS011;30138;20.964;105.830;2022-11-21T04:31:11;75.75;;;45.70;;
44434;SDS011;30138;20.964;105.830;2022-11-21T04:36:18;68.50;;;42.92;;
44434;SDS011;30138;20.964;105.830;2022-11-21T04:41:26;70.32;;;44.55;;
44434;SDS011;30138;20.964;105.830;2022-11-21T04:46:35;75.60;;;45.78;;
44434;SDS011;30138;20.964;105.830;2022-11-21T04:51:42;65.80;;;45.58;;
44434;SDS011;30138;20.964;105.830;2022-11-21T04:56:50;67.78;;;44.22;;
44434;SDS011;30138;20.964;105.830;2022-11-21T05:02:00;67.55;;;44.40;;
44434;SDS011;30138;20.964;105.830;2022-11-21T05:07:08;69.70;;;44.50;;
44434;SDS011;30138;20.964;105.830;2022-11-21T05:12:15;69.32;;;43.75;;
44434;SDS011;30138;20.964;105.830;2022-11-21T05:17:40;67.72;;;43.78;;
44434;SDS011;30138;20.964;105.830;2022-11-21T05:22:50;67.30;;;45.10;;
44434;SDS011;30138;20.964;105.830;2022-11-21T05:27:58;64.60;;;43.70;;
44434;SDS011;30138;20.964;105.830;2022-11-21T05:33:07;65.97;;;44.47;;
44434;SDS011;30138;20.964;105.830;2022-11-21T05:38:17;66.47;;;44.53;;
44434;SDS011;30138;20.964;105.830;2022-11-21T05:43:28;60.22;;;43.08;;
44434;SDS011;30138;20.964;105.830;2022-11-21T05:48:53;62.05;;;42.70;;
44434;SDS011;30138;20.964;105.830;2022-11-21T05:54:00;62.65;;;42.08;;
44434;SDS011;30138;20.964;105.830;2022-11-21T05:59:10;61.03;;;42.25;;
44434;SDS011;30138;20.964;105.830;2022-11-21T06:04:19;55.30;;;40.70;;
44434;SDS011;30138;20.964;105.830;2022-11-21T06:09:28;62.07;;;41.90;;
44434;SDS011;30138;20.964;105.830;2022-11-21T06:14:36;60.33;;;40.65;;
44434;SDS011;30138;20.964;105.830;2022-11-21T06:19:45;57.17;;;39.08;;
44434;SDS011;30138;20.964;105.830;2022-11-21T06:24:53;56.58;;;38.58;;
44434;SDS011;30138;20.964;105.830;2022-11-21T06:30:01;57.95;;;37.65;;
44434;SDS011;30138;20.964;105.830;2022-11-21T06:35:12;53.95;;;36.63;;
44434;SDS011;30138;20.964;105.830;2022-11-21T06:40:20;56.00;;;37.77;;
44434;SDS011;30138;20.964;105.830;2022-11-21T06:45:28;54.42;;;37.17;;
44434;SDS011;30138;20.964;105.830;2022-11-21T06:50:39;56.80;;;38.90;;
44434;SDS011;30138;20.964;105.830;2022-11-21T06:55:48;54.22;;;37.35;;
44434;SDS011;30138;20.964;105.830;2022-11-21T07:00:56;52.88;;;37.78;;
44434;SDS011;30138;20.964;105.830;2022-11-21T07:06:09;68.13;;;40.70;;
44434;SDS011;30138;20.964;105.830;2022-11-21T07:11:17;59.35;;;39.20;;
44434;SDS011;30138;20.964;105.830;2022-11-21T07:16:24;61.33;;;39.50;;
44434;SDS011;30138;20.964;105.830;2022-11-21T07:21:35;59.42;;;38.72;;
44434;SDS011;30138;20.964;105.830;2022-11-21T07:26:44;60.08;;;40.35;;
44434;SDS011;30138;20.964;105.830;2022-11-21T07:31:51;60.03;;;39.53;;
44434;SDS011;30138;20.964;105.830;2022-11-21T07:37:01;62.70;;;41.35;;
44434;SDS011;30138;20.964;105.830;2022-11-21T07:42:08;54.80;;;40.97;;
44434;SDS011;30138;20.964;105.830;2022-11-21T07:47:16;56.08;;;41.17;;
44434;SDS011;30138;20.964;105.830;2022-11-21T07:52:25;57.38;;;39.63;;
44434;SDS011;30138;20.964;105.830;2022-11-21T07:57:33;56.10;;;41.08;;
44434;SDS011;30138;20.964;105.830;2022-11-21T08:02:40;57.35;;;39.33;;
44434;SDS011;30138;20.964;105.830;2022-11-21T08:07:49;58.30;;;38.65;;
44434;SDS011;30138;20.964;105.830;2022-11-21T08:12:56;59.08;;;41.45;;
44434;SDS011;30138;20.964;105.830;2022-11-21T08:18:07;54.95;;;39.08;;
44434;SDS011;30138;20.964;105.830;2022-11-21T08:23:16;53.13;;;38.58;;
44434;SDS011;30138;20.964;105.830;2022-11-21T08:28:23;56.30;;;39.63;;
44434;SDS011;30138;20.964;105.830;2022-11-21T08:33:30;52.25;;;36.78;;
44434;SDS011;30138;20.964;105.830;2022-11-21T08:38:39;51.10;;;38.60;;
44434;SDS011;30138;20.964;105.830;2022-11-21T08:43:47;59.30;;;41.08;;
44434;SDS011;30138;20.964;105.830;2022-11-21T08:48:55;55.92;;;40.88;;
44434;SDS011;30138;20.964;105.830;2022-11-21T08:54:07;58.90;;;39.85;;
44434;SDS011;30138;20.964;105.830;2022-11-21T08:59:16;56.38;;;40.30;;
44434;SDS011;30138;20.964;105.830;2022-11-21T09:04:24;59.33;;;41.50;;
44434;SDS011;30138;20.964;105.830;2022-11-21T09:09:36;58.58;;;42.42;;
44434;SDS011;30138;20.964;105.830;2022-11-21T09:14:43;61.45;;;42.78;;
44434;SDS011;30138;20.964;105.830;2022-11-21T09:20:10;53.15;;;41.20;;
44434;SDS011;30138;20.964;105.830;2022-11-21T09:25:19;57.85;;;42.97;;
44434;SDS011;30138;20.964;105.830;2022-11-21T09:30:25;56.13;;;41.75;;
44434;SDS011;30138;20.964;105.830;2022-11-21T09:35:33;60.53;;;43.47;;
44434;SDS011;30138;20.964;105.830;2022-11-21T09:40:42;61.33;;;41.38;;
44434;SDS011;30138;20.964;105.830;2022-11-21T09:45:54;61.25;;;42.53;;
44434;SDS011;30138;20.964;105.830;2022-11-21T09:51:09;61.40;;;44.22;;
44434;SDS011;30138;20.964;105.830;2022-11-21T09:56:21;56.95;;;42.78;;
44434;SDS011;30138;20.964;105.830;2022-11-21T10:01:30;60.83;;;44.00;;
44434;SDS011;30138;20.964;105.830;2022-11-21T10:06:39;62.67;;;45.20;;
44434;SDS011;30138;20.964;105.830;2022-11-21T10:11:58;63.45;;;44.97;;
44434;SDS011;30138;20.964;105.830;2022-11-21T10:17:27;63.45;;;45.25;;
44434;SDS011;30138;20.964;105.830;2022-11-21T10:28:32;72.05;;;50.70;;
44434;SDS011;30138;20.964;105.830;2022-11-21T10:33:46;72.72;;;52.17;;
44434;SDS011;30138;20.964;105.830;2022-11-21T10:38:57;74.82;;;53.05;;
44434;SDS011;30138;20.964;105.830;2022-11-21T10:44:13;87.55;;;56.10;;
44434;SDS011;30138;20.964;105.830;2022-11-21T10:49:46;82.68;;;57.78;;
44434;SDS011;30138;20.964;105.830;2022-11-21T10:55:05;87.93;;;58.90;;
44434;SDS011;30138;20.964;105.830;2022-11-21T11:00:21;95.57;;;62.90;;
44434;SDS011;30138;20.964;105.830;2022-11-21T11:05:30;104.28;;;70.10;;
44434;SDS011;30138;20.964;105.830;2022-11-21T11:10:39;110.72;;;70.15;;
44434;SDS011;30138;20.964;105.830;2022-11-21T11:15:53;107.85;;;73.45;;
44434;SDS011;30138;20.964;105.830;2022-11-21T11:21:14;120.05;;;77.88;;
44434;SDS011;30138;20.964;105.830;2022-11-21T11:26:24;122.13;;;78.45;;
44434;SDS011;30138;20.964;105.830;2022-11-21T11:31:40;124.33;;;82.77;;
44434;SDS011;30138;20.964;105.830;2022-11-21T11:37:00;123.10;;;79.60;;
44434;SDS011;30138;20.964;105.830;2022-11-21T11:42:25;121.90;;;80.35;;
44434;SDS011;30138;20.964;105.830;2022-11-21T11:48:14;114.40;;;80.32;;
44434;SDS011;30138;20.964;105.830;2022-11-21T11:53:23;127.88;;;83.35;;
44434;SDS011;30138;20.964;105.830;2022-11-21T11:58:36;139.48;;;89.18;;
44434;SDS011;30138;20.964;105.830;2022-11-21T12:03:52;137.15;;;89.82;;
44434;SDS011;30138;20.964;105.830;2022-11-21T12:09:04;142.65;;;88.55;;
44434;SDS011;30138;20.964;105.830;2022-11-21T12:14:21;141.07;;;91.47;;
44434;SDS011;30138;20.964;105.830;2022-11-21T12:20:24;159.48;;;94.10;;
44434;SDS011;30138;20.964;105.830;2022-11-21T12:25:37;139.23;;;91.63;;
44434;SDS011;30138;20.964;105.830;2022-11-21T12:30:56;159.95;;;96.28;;
44434;SDS011;30138;20.964;105.830;2022-11-21T12:36:18;161.10;;;98.50;;
44434;SDS011;30138;20.964;105.830;2022-11-21T12:41:35;160.80;;;99.95;;
44434;SDS011;30138;20.964;105.830;2022-11-21T12:47:11;181.82;;;109.18;;
44434;SDS011;30138;20.964;105.830;2022-11-21T12:53:00;184.15;;;109.10;;
44434;SDS011;30138;20.964;105.830;2022-11-21T12:58:33;188.07;;;109.35;;
44434;SDS011;30138;20.964;105.830;2022-11-21T13:03:49;192.23;;;111.78;;
44434;SDS011;30138;20.964;105.830;2022-11-21T13:09:06;190.25;;;113.10;;
44434;SDS011;30138;20.964;105.830;2022-11-21T13:14:19;188.65;;;112.80;;
44434;SDS011;30138;20.964;105.830;2022-11-21T13:19:48;202.63;;;114.30;;
44434;SDS011;30138;20.964;105.830;2022-11-21T13:25:01;211.15;;;117.40;;
44434;SDS011;30138;20.964;105.830;2022-11-21T13:30:24;199.50;;;118.40;;
44434;SDS011;30138;20.964;105.830;2022-11-21T13:41:21;200.75;;;115.03;;
44434;SDS011;30138;20.964;105.830;2022-11-21T13:53:01;168.40;;;102.78;;
44434;SDS011;30138;20.964;105.830;2022-11-21T13:58:33;176.55;;;99.25;;
44434;SDS011;30138;20.964;105.830;2022-11-21T14:03:56;159.63;;;94.95;;
44434;SDS011;30138;20.964;105.830;2022-11-21T14:09:20;161.65;;;94.20;;
44434;SDS011;30138;20.964;105.830;2022-11-21T14:14:42;156.82;;;95.75;;
44434;SDS011;30138;20.964;105.830;2022-11-21T14:19:57;159.60;;;95.53;;
44434;SDS011;30138;20.964;105.830;2022-11-21T14:25:17;149.70;;;93.38;;
44434;SDS011;30138;20.964;105.830;2022-11-21T14:35:41;150.48;;;92.60;;
44434;SDS011;30138;20.964;105.830;2022-11-21T14:46:34;151.27;;;91.00;;
44434;SDS011;30138;20.964;105.830;2022-11-21T14:51:43;150.47;;;89.57;;
44434;SDS011;30138;20.964;105.830;2022-11-21T14:56:53;150.63;;;88.72;;
44434;SDS011;30138;20.964;105.830;2022-11-21T15:02:06;144.17;;;91.20;;
44434;SDS011;30138;20.964;105.830;2022-11-21T15:07:21;148.20;;;89.93;;
44434;SDS011;30138;20.964;105.830;2022-11-21T15:12:31;134.45;;;85.13;;
44434;SDS011;30138;20.964;105.830;2022-11-21T15:17:48;140.02;;;85.85;;
44434;SDS011;30138;20.964;105.830;2022-11-21T15:23:00;139.90;;;86.40;;
44434;SDS011;30138;20.964;105.830;2022-11-21T15:28:13;141.93;;;86.75;;
44434;SDS011;30138;20.964;105.830;2022-11-21T15:33:56;139.23;;;85.57;;
44434;SDS011;30138;20.964;105.830;2022-11-21T15:39:05;139.02;;;86.97;;
44434;SDS011;30138;20.964;105.830;2022-11-21T15:44:33;150.50;;;88.18;;
44434;SDS011;30138;20.964;105.830;2022-11-21T15:49:42;140.88;;;87.43;;
44434;SDS011;30138;20.964;105.830;2022-11-21T15:54:55;143.23;;;85.68;;
44434;SDS011;30138;20.964;105.830;2022-11-21T16:00:06;155.00;;;87.43;;
44434;SDS011;30138;20.964;105.830;2022-11-21T16:05:17;140.35;;;84.80;;
44434;SDS011;30138;20.964;105.830;2022-11-21T16:10:25;156.13;;;96.18;;
44434;SDS011;30138;20.964;105.830;2022-11-21T16:15:32;167.18;;;104.35;;
44434;SDS011;30138;20.964;105.830;2022-11-21T16:20:41;166.38;;;103.70;;
44434;SDS011;30138;20.964;105.830;2022-11-21T16:25:51;162.75;;;98.57;;
44434;SDS011;30138;20.964;105.830;2022-11-21T16:31:02;156.55;;;96.07;;
44434;SDS011;30138;20.964;105.830;2022-11-21T16:36:12;172.30;;;104.93;;
44434;SDS011;30138;20.964;105.830;2022-11-21T16:41:25;194.85;;;117.07;;
44434;SDS011;30138;20.964;105.830;2022-11-21T16:46:40;255.98;;;167.95;;
44434;SDS011;30138;20.964;105.830;2022-11-21T16:52:07;246.60;;;158.70;;
44434;SDS011;30138;20.964;105.830;2022-11-21T16:57:14;252.80;;;158.85;;
44434;SDS011;30138;20.964;105.830;2022-11-21T17:02:22;276.15;;;180.23;;
44434;SDS011;30138;20.964;105.830;2022-11-21T17:07:31;279.10;;;182.70;;
44434;SDS011;30138;20.964;105.830;2022-11-21T17:12:38;283.00;;;189.10;;
44434;SDS011;30138;20.964;105.830;2022-11-21T17:17:46;287.50;;;182.15;;
44434;SDS011;30138;20.964;105.830;2022-11-21T17:22:56;233.15;;;142.25;;
44434;SDS011;30138;20.964;105.830;2022-11-21T17:28:04;183.90;;;113.67;;
44434;SDS011;30138;20.964;105.830;2022-11-21T17:33:11;169.20;;;105.78;;
44434;SDS011;30138;20.964;105.830;2022-11-21T17:38:24;180.68;;;104.00;;
44434;SDS011;30138;20.964;105.830;2022-11-21T17:43:33;173.90;;;104.90;;
44434;SDS011;30138;20.964;105.830;2022-11-21T17:48:40;172.00;;;104.82;;
44434;SDS011;30138;20.964;105.830;2022-11-21T17:53:53;171.20;;;103.55;;
44434;SDS011;30138;20.964;105.830;2022-11-21T17:59:05;171.18;;;102.13;;
44434;SDS011;30138;20.964;105.830;2022-11-21T18:04:15;176.67;;;103.20;;
44434;SDS011;30138;20.964;105.830;2022-11-21T18:09:24;181.07;;;108.47;;
44434;SDS011;30138;20.964;105.830;2022-11-21T18:14:31;200.82;;;119.07;;
44434;SDS011;30138;20.964;105.830;2022-11-21T18:19:40;203.98;;;121.80;;
44434;SDS011;30138;20.964;105.830;2022-11-21T18:24:50;168.18;;;104.13;;
44434;SDS011;30138;20.964;105.830;2022-11-21T18:29:58;176.93;;;102.55;;
44434;SDS011;30138;20.964;105.830;2022-11-21T18:35:05;158.88;;;97.60;;
44434;SDS011;30138;20.964;105.830;2022-11-21T18:40:15;167.40;;;99.88;;
44434;SDS011;30138;20.964;105.830;2022-11-21T18:45:22;169.60;;;100.00;;
44434;SDS011;30138;20.964;105.830;2022-11-21T18:50:30;160.25;;;94.22;;
44434;SDS011;30138;20.964;105.830;2022-11-21T18:55:40;151.55;;;91.82;;
44434;SDS011;30138;20.964;105.830;2022-11-21T19:00:48;146.82;;;90.13;;
44434;SDS011;30138;20.964;105.830;2022-11-21T19:05:56;143.40;;;87.43;;
44434;SDS011;30138;20.964;105.830;2022-11-21T19:11:06;138.65;;;85.35;;
44434;SDS011;30138;20.964;105.830;2022-11-21T19:16:17;142.05;;;86.22;;
44434;SDS011;30138;20.964;105.830;2022-11-21T19:21:26;132.43;;;85.47;;
44434;SDS011;30138;20.964;105.830;2022-11-21T19:26:35;144.43;;;87.80;;
44434;SDS011;30138;20.964;105.830;2022-11-21T19:31:44;150.82;;;87.05;;
44434;SDS011;30138;20.964;105.830;2022-11-21T19:36:52;147.63;;;90.32;;
44434;SDS011;30138;20.964;105.830;2022-11-21T19:42:01;148.50;;;89.88;;
44434;SDS011;30138;20.964;105.830;2022-11-21T19:47:08;135.20;;;84.55;;
44434;SDS011;30138;20.964;105.830;2022-11-21T19:52:16;137.82;;;84.93;;
44434;SDS011;30138;20.964;105.830;2022-11-21T19:57:24;145.43;;;84.43;;
44434;SDS011;30138;20.964;105.830;2022-11-21T20:02:32;143.23;;;86.80;;
44434;SDS011;30138;20.964;105.830;2022-11-21T20:07:39;154.40;;;90.90;;
44434;SDS011;30138;20.964;105.830;2022-11-21T20:12:48;150.02;;;88.68;;
44434;SDS011;30138;20.964;105.830;2022-11-21T20:17:57;151.80;;;89.60;;
44434;SDS011;30138;20.964;105.830;2022-11-21T20:23:05;138.13;;;87.13;;
44434;SDS011;30138;20.964;105.830;2022-11-21T20:28:14;158.32;;;89.10;;
44434;SDS011;30138;20.964;105.830;2022-11-21T20:33:21;151.45;;;90.10;;
44434;SDS011;30138;20.964;105.830;2022-11-21T20:38:28;151.93;;;89.93;;
44434;SDS011;30138;20.964;105.830;2022-11-21T20:43:39;163.23;;;94.22;;
44434;SDS011;30138;20.964;105.830;2022-11-21T20:48:46;157.27;;;94.38;;
44434;SDS011;30138;20.964;105.830;2022-11-21T20:53:54;168.35;;;98.18;;
44434;SDS011;30138;20.964;105.830;2022-11-21T20:59:03;176.30;;;100.25;;
44434;SDS011;30138;20.964;105.830;2022-11-21T21:04:11;177.07;;;102.50;;
44434;SDS011;30138;20.964;105.830;2022-11-21T21:09:19;166.15;;;101.82;;
44434;SDS011;30138;20.964;105.830;2022-11-21T21:14:28;179.98;;;104.53;;
44434;SDS011;30138;20.964;105.830;2022-11-21T21:19:35;187.85;;;107.60;;
44434;SDS011;30138;20.964;105.830;2022-11-21T21:24:42;177.57;;;110.43;;
44434;SDS011;30138;20.964;105.830;2022-11-21T21:29:51;194.32;;;116.72;;
44434;SDS011;30138;20.964;105.830;2022-11-21T21:34:58;203.48;;;119.95;;
44434;SDS011;30138;20.964;105.830;2022-11-21T21:40:06;213.95;;;122.63;;
44434;SDS011;30138;20.964;105.830;2022-11-21T21:45:16;210.85;;;121.10;;
44434;SDS011;30138;20.964;105.830;2022-11-21T21:50:23;203.70;;;120.70;;
44434;SDS011;30138;20.964;105.830;2022-11-21T21:55:30;213.80;;;117.13;;
44434;SDS011;30138;20.964;105.830;2022-11-21T22:00:39;203.65;;;117.85;;
44434;SDS011;30138;20.964;105.830;2022-11-21T22:05:46;201.82;;;113.38;;
44434;SDS011;30138;20.964;105.830;2022-11-21T22:10:59;195.32;;;112.22;;
44434;SDS011;30138;20.964;105.830;2022-11-21T22:16:09;190.35;;;113.65;;
44434;SDS011;30138;20.964;105.830;2022-11-21T22:21:17;179.20;;;109.82;;
44434;SDS011;30138;20.964;105.830;2022-11-21T22:26:25;182.70;;;106.18;;
44434;SDS011;30138;20.964;105.830;2022-11-21T22:31:36;187.75;;;107.85;;
44434;SDS011;30138;20.964;105.830;2022-11-21T22:36:44;180.68;;;106.63;;
44434;SDS011;30138;20.964;105.830;2022-11-21T22:41:51;181.45;;;104.00;;
44434;SDS011;30138;20.964;105.830;2022-11-21T22:46:59;184.85;;;104.93;;
44434;SDS011;30138;20.964;105.830;2022-11-21T22:52:08;185.38;;;104.43;;
44434;SDS011;30138;20.964;105.830;2022-11-21T22:57:15;173.38;;;103.25;;
44434;SDS011;30138;20.964;105.830;2022-11-21T23:02:25;173.80;;;104.15;;
44434;SDS011;30138;20.964;105.830;2022-11-21T23:07:33;167.20;;;100.75;;
44434;SDS011;30138;20.964;105.830;2022-11-21T23:12:40;172.50;;;101.60;;
44434;SDS011;30138;20.964;105.830;2022-11-21T23:17:51;173.27;;;99.93;;
44434;SDS011;30138;20.964;105.830;2022-11-21T23:22:58;179.55;;;101.18;;
44434;SDS011;30138;20.964;105.830;2022-11-21T23:28:05;180.60;;;100.38;;
44434;SDS011;30138;20.964;105.830;2022-11-21T23:33:14;185.50;;;104.47;;
44434;SDS011;30138;20.964;105.830;2022-11-21T23:38:22;179.38;;;103.35;;
44434;SDS011;30138;20.964;105.830;2022-11-21T23:43:30;203.63;;;102.20;;
44434;SDS011;30138;20.964;105.830;2022-11-21T23:48:39;195.55;;;105.88;;
44434;SDS011;30138;20.964;105.830;2022-11-21T23:53:46;179.48;;;100.10;;
44434;SDS011;30138;20.964;105.830;2022-11-21T23:58:54;179.57;;;102.10;;
